createdAt,value
2022-12-17T00:02:34.227Z,4.59
2022-12-17T00:05:19.535Z,4.55
2022-12-17T00:08:04.194Z,4.50
2022-12-17T00:10:48.977Z,4.48
2022-12-17T00:13:40.968Z,4.44
2022-12-17T00:16:26.295Z,4.43
2022-12-17T00:19:11.405Z,4.39
2022-12-17T00:21:56.214Z,4.36
2022-12-17T00:24:41.374Z,4.35
2022-12-17T00:27:26.207Z,4.33
2022-12-17T00:30:10.909Z,4.36
2022-12-17T00:32:55.845Z,4.38
2022-12-17T00:35:40.628Z,4.32
2022-12-17T00:38:25.941Z,4.37
2022-12-17T00:41:11.831Z,4.35
2022-12-17T00:43:56.581Z,4.34
2022-12-17T00:46:41.513Z,4.37
2022-12-17T00:49:26.464Z,4.40
2022-12-17T00:52:27.975Z,4.44
2022-12-17T00:55:13.007Z,4.49
2022-12-17T00:57:57.781Z,4.48
2022-12-17T01:00:42.660Z,4.48
2022-12-17T01:03:30.406Z,4.42
2022-12-17T01:06:15.612Z,4.35
2022-12-17T01:09:00.378Z,4.29
2022-12-17T01:11:45.252Z,4.31
2022-12-17T01:14:29.927Z,4.31
2022-12-17T01:17:14.729Z,4.37
2022-12-17T01:19:59.564Z,4.36
2022-12-17T01:22:44.256Z,4.31
2022-12-17T01:25:29.155Z,4.28
2022-12-17T01:28:13.796Z,4.29
2022-12-17T01:30:58.692Z,4.28
2022-12-17T01:33:43.845Z,4.32
2022-12-17T01:36:28.664Z,4.42
2022-12-17T01:39:13.424Z,4.42
2022-12-17T01:41:58.132Z,4.37
2022-12-17T01:44:58.009Z,4.39
2022-12-17T01:47:52.417Z,4.37
2022-12-17T01:50:39.029Z,4.36
2022-12-17T01:53:26.346Z,4.31
2022-12-17T01:56:12.652Z,4.29
2022-12-17T01:58:59.476Z,4.27
2022-12-17T02:01:45.066Z,4.24
2022-12-17T02:04:30.466Z,4.25
2022-12-17T02:07:30.451Z,4.27
2022-12-17T02:10:18.443Z,4.27
2022-12-17T02:13:09.926Z,4.24
2022-12-17T02:16:11.795Z,4.25
2022-12-17T02:19:03.640Z,4.31
2022-12-17T02:21:51.877Z,4.30
2022-12-17T02:25:11.737Z,4.32
2022-12-17T02:27:56.904Z,4.34
2022-12-17T02:30:42.132Z,4.22
2022-12-17T02:33:28.051Z,4.25
2022-12-17T02:36:18.434Z,4.29
2022-12-17T02:39:03.229Z,4.20
2022-12-17T02:41:51.085Z,4.13
2022-12-17T02:44:38.942Z,4.12
2022-12-17T02:47:27.129Z,4.05
2022-12-17T02:50:12.935Z,3.96
2022-12-17T02:53:02.774Z,3.86
2022-12-17T02:55:47.463Z,3.78
2022-12-17T02:58:32.725Z,3.66
2022-12-17T03:01:17.701Z,3.63
2022-12-17T03:04:02.678Z,3.63
2022-12-17T03:06:47.364Z,3.64
2022-12-17T03:09:32.594Z,3.58
2022-12-17T03:12:17.435Z,3.49
2022-12-17T03:15:02.153Z,3.51
2022-12-17T03:17:48.346Z,3.49
2022-12-17T03:20:33.693Z,3.43
2022-12-17T03:23:24.064Z,3.30
2022-12-17T03:26:09.251Z,3.33
2022-12-17T03:28:54.062Z,3.20
2022-12-17T03:31:39.253Z,3.14
2022-12-17T03:34:24.020Z,3.21
2022-12-17T03:37:09.361Z,3.22
2022-12-17T03:39:54.657Z,3.12
2022-12-17T03:42:39.380Z,3.11
2022-12-17T03:45:24.688Z,3.05
2022-12-17T03:48:09.504Z,3.06
2022-12-17T03:50:54.296Z,3.02
2022-12-17T03:53:39.263Z,2.93
2022-12-17T03:56:24.203Z,2.94
2022-12-17T03:59:13.538Z,2.90
2022-12-17T04:01:58.459Z,2.89
2022-12-17T04:04:43.467Z,2.87
2022-12-17T04:07:28.219Z,2.90
2022-12-17T04:10:12.908Z,2.89
2022-12-17T04:12:57.655Z,2.92
2022-12-17T04:15:42.375Z,2.91
2022-12-17T04:18:27.476Z,2.88
2022-12-17T04:21:12.254Z,2.93
2022-12-17T04:23:57.078Z,2.96
2022-12-17T04:26:41.956Z,3.04
2022-12-17T04:29:26.736Z,2.96
2022-12-17T04:32:11.738Z,2.91
2022-12-17T04:34:56.534Z,2.97
2022-12-17T04:37:41.307Z,2.99
2022-12-17T04:40:28.006Z,2.98
2022-12-17T04:43:12.703Z,2.95
2022-12-17T04:45:57.427Z,2.88
2022-12-17T04:48:42.199Z,2.94
2022-12-17T04:51:27.591Z,2.88
2022-12-17T04:54:12.216Z,2.88
2022-12-17T04:56:56.963Z,2.95
2022-12-17T04:59:41.774Z,2.99
2022-12-17T05:02:26.600Z,3.01
2022-12-17T05:05:11.672Z,3.00
2022-12-17T05:07:56.426Z,3.00
2022-12-17T05:10:41.076Z,3.12
2022-12-17T05:13:28.263Z,3.03
2022-12-17T05:16:16.653Z,3.04
2022-12-17T05:19:01.407Z,3.04
2022-12-17T05:21:46.630Z,2.88
2022-12-17T05:24:31.403Z,2.87
2022-12-17T05:27:16.037Z,2.83
2022-12-17T05:30:00.910Z,2.82
2022-12-17T05:32:45.554Z,2.79
2022-12-17T05:35:30.324Z,2.72
2022-12-17T05:38:22.275Z,2.53
2022-12-17T05:41:07.201Z,2.44
2022-12-17T05:43:52.575Z,2.38
2022-12-17T05:46:37.847Z,2.25
2022-12-17T05:49:22.745Z,2.27
2022-12-17T05:52:07.538Z,2.27
2022-12-17T05:54:52.226Z,2.23
2022-12-17T05:57:56.139Z,2.25
2022-12-17T06:00:41.341Z,2.38
2022-12-17T06:03:27.774Z,2.40
2022-12-17T06:06:15.465Z,2.38
2022-12-17T06:09:00.128Z,2.40
2022-12-17T06:11:45.929Z,2.47
2022-12-17T06:14:31.289Z,2.46
2022-12-17T06:17:36.004Z,2.44
2022-12-17T06:20:21.223Z,2.37
2022-12-17T06:23:06.081Z,2.28
2022-12-17T06:25:50.929Z,2.21
2022-12-17T06:28:35.696Z,2.14
2022-12-17T06:31:20.551Z,2.13
2022-12-17T06:34:05.452Z,2.12
2022-12-17T06:36:50.311Z,2.08
2022-12-17T06:39:35.492Z,2.06
2022-12-17T06:42:20.385Z,2.13
2022-12-17T06:45:05.498Z,2.09
2022-12-17T06:47:50.306Z,1.92
2022-12-17T06:50:35.211Z,1.86
2022-12-17T06:53:21.615Z,1.81
2022-12-17T06:56:06.295Z,1.77
2022-12-17T06:58:51.651Z,1.84
2022-12-17T07:01:37.068Z,1.80
2022-12-17T07:04:22.661Z,1.79
2022-12-17T07:07:08.016Z,1.84
2022-12-17T07:09:52.749Z,1.90
2022-12-17T07:12:37.976Z,1.92
2022-12-17T07:15:23.143Z,1.85
2022-12-17T07:18:20.186Z,1.94
2022-12-17T07:21:05.892Z,1.95
2022-12-17T07:23:50.773Z,1.97
2022-12-17T07:26:35.931Z,2.05
2022-12-17T07:29:21.398Z,2.06
2022-12-17T07:32:06.712Z,2.04
2022-12-17T07:34:51.612Z,2.07
2022-12-17T07:37:36.825Z,2.19
2022-12-17T07:40:22.483Z,2.12
2022-12-17T07:43:07.230Z,1.92
2022-12-17T07:45:52.073Z,1.80
2022-12-17T07:48:37.170Z,1.68
2022-12-17T07:51:22.367Z,1.81
2022-12-17T07:54:07.692Z,1.88
2022-12-17T07:56:58.121Z,1.82
2022-12-17T07:59:43.082Z,1.86
2022-12-17T08:02:29.402Z,1.86
2022-12-17T08:05:14.429Z,1.86
2022-12-17T08:07:59.143Z,1.90
2022-12-17T08:10:43.939Z,2.01
2022-12-17T08:13:28.594Z,1.83
2022-12-17T08:16:13.504Z,1.88
2022-12-17T08:18:58.849Z,1.72
2022-12-17T08:21:43.587Z,1.65
2022-12-17T08:24:28.443Z,1.70
2022-12-17T08:27:13.283Z,1.76
2022-12-17T08:29:58.161Z,1.86
2022-12-17T08:32:43.372Z,1.92
2022-12-17T08:35:28.658Z,1.98
2022-12-17T08:38:23.539Z,1.86
2022-12-17T08:41:08.231Z,1.90
2022-12-17T08:43:53.518Z,1.98
2022-12-17T08:46:38.862Z,1.90
2022-12-17T08:49:23.628Z,1.92
2022-12-17T08:52:08.486Z,1.99
2022-12-17T08:54:53.202Z,2.18
2022-12-17T08:57:38.013Z,2.17
2022-12-17T09:00:23.325Z,2.19
2022-12-17T09:03:08.167Z,2.11
2022-12-17T09:05:53.237Z,2.07
2022-12-17T09:08:37.959Z,2.14
2022-12-17T09:11:23.366Z,2.26
2022-12-17T09:14:08.143Z,2.38
2022-12-17T09:16:53.024Z,2.41
2022-12-17T09:19:37.783Z,2.42
2022-12-17T09:22:22.631Z,2.38
2022-12-17T09:25:07.706Z,2.48
2022-12-17T09:27:52.553Z,2.67
2022-12-17T09:30:37.690Z,2.75
2022-12-17T09:33:22.794Z,2.76
2022-12-17T09:36:08.378Z,2.77
2022-12-17T09:38:53.060Z,2.61
2022-12-17T09:41:44.966Z,2.64
2022-12-17T09:44:42.956Z,2.63
2022-12-17T09:47:54.513Z,2.69
2022-12-17T09:50:40.008Z,2.80
2022-12-17T09:53:39.915Z,2.91
2022-12-17T09:56:28.295Z,2.88
2022-12-17T09:59:13.577Z,2.91
2022-12-17T10:01:58.991Z,2.97
2022-12-17T10:05:03.536Z,2.91
2022-12-17T10:07:55.037Z,2.96
2022-12-17T10:10:45.707Z,3.04
2022-12-17T10:13:33.579Z,3.08
2022-12-17T10:16:18.860Z,3.04
2022-12-17T10:19:05.287Z,3.14
2022-12-17T10:21:52.406Z,3.21
2022-12-17T10:24:37.227Z,3.19
2022-12-17T10:27:30.191Z,3.14
2022-12-17T10:30:14.959Z,3.20
2022-12-17T10:33:10.746Z,3.18
2022-12-17T10:35:56.657Z,3.27
2022-12-17T10:38:49.989Z,3.25
2022-12-17T10:41:45.038Z,3.27
2022-12-17T10:44:52.148Z,3.25
2022-12-17T10:47:42.531Z,3.34
2022-12-17T10:50:40.507Z,3.35
2022-12-17T10:53:38.704Z,3.52
2022-12-17T10:56:24.271Z,3.48
2022-12-17T10:59:11.798Z,3.48
2022-12-17T11:02:00.873Z,3.40
2022-12-17T11:04:56.663Z,3.46
2022-12-17T11:07:54.569Z,3.52
2022-12-17T11:10:44.354Z,3.44
2022-12-17T11:13:58.527Z,3.51
2022-12-17T11:16:52.447Z,3.53
2022-12-17T11:19:54.297Z,3.63
2022-12-17T11:23:04.150Z,3.65
2022-12-17T11:26:05.152Z,3.67
2022-12-17T11:28:54.659Z,3.71
2022-12-17T11:31:46.083Z,3.71
2022-12-17T11:34:50.921Z,3.66
2022-12-17T11:37:39.651Z,3.70
2022-12-17T11:40:54.467Z,3.88
2022-12-17T11:43:58.272Z,4.01
2022-12-17T11:46:52.271Z,3.88
2022-12-17T11:50:23.704Z,3.92
2022-12-17T11:53:45.855Z,4.04
2022-12-17T11:56:51.402Z,4.11
2022-12-17T12:00:03.655Z,4.06
2022-12-17T12:03:07.281Z,4.01
2022-12-17T12:06:16.282Z,4.02
2022-12-17T12:09:13.669Z,4.14
2022-12-17T12:12:11.675Z,4.09
2022-12-17T12:15:21.640Z,4.10
2022-12-17T12:18:20.833Z,4.16
2022-12-17T12:21:08.678Z,4.32
2022-12-17T12:24:05.699Z,4.36
2022-12-17T12:27:23.355Z,4.31
2022-12-17T12:30:30.075Z,4.23
2022-12-17T12:33:30.195Z,4.29
2022-12-17T12:36:19.770Z,4.28
2022-12-17T12:39:08.625Z,4.28
2022-12-17T12:42:00.904Z,4.32
2022-12-17T12:45:07.589Z,4.28
2022-12-17T12:48:20.460Z,4.27
2022-12-17T12:51:40.851Z,4.19
2022-12-17T12:54:50.249Z,4.25
2022-12-17T12:57:50.728Z,4.29
2022-12-17T13:00:44.286Z,4.37
2022-12-17T13:03:48.207Z,4.38
2022-12-17T13:06:37.435Z,4.27
2022-12-17T13:09:17.478Z,4.34
2022-12-17T13:11:46.732Z,4.40
2022-12-17T13:14:18.855Z,4.29
2022-12-17T13:16:45.225Z,4.25
2022-12-17T13:19:40.892Z,4.33
2022-12-17T13:22:23.447Z,4.26
2022-12-17T13:24:54.031Z,4.02
2022-12-17T13:27:35.791Z,3.87
2022-12-17T13:30:30.026Z,3.98
2022-12-17T13:33:20.834Z,4.13
2022-12-17T13:36:02.483Z,4.10
2022-12-17T13:38:44.062Z,4.13
2022-12-17T13:41:19.210Z,4.15
2022-12-17T13:43:57.772Z,4.19
2022-12-17T13:46:46.954Z,4.30
2022-12-17T13:49:20.892Z,4.26
2022-12-17T13:51:47.919Z,4.33
2022-12-17T13:54:19.335Z,4.25
2022-12-17T13:56:46.183Z,4.25
2022-12-17T13:59:21.473Z,4.22
2022-12-17T14:01:53.297Z,4.18
2022-12-17T14:04:26.410Z,4.03
2022-12-17T14:06:55.542Z,4.02
2022-12-17T14:09:26.420Z,3.98
2022-12-17T14:12:11.790Z,4.07
2022-12-17T14:14:42.900Z,4.10
2022-12-17T14:17:19.088Z,4.12
2022-12-17T14:19:46.623Z,4.18
2022-12-17T14:22:23.017Z,4.34
2022-12-17T14:24:49.566Z,4.35
2022-12-17T14:27:25.920Z,4.29
2022-12-17T14:29:52.437Z,4.28
2022-12-17T14:32:26.638Z,4.27
2022-12-17T14:34:58.856Z,4.32
2022-12-17T14:37:27.908Z,4.33
2022-12-17T14:40:00.474Z,4.35
2022-12-17T14:42:29.200Z,4.35
2022-12-17T14:44:57.575Z,4.34
2022-12-17T14:47:32.284Z,4.40
2022-12-17T14:50:13.965Z,4.43
2022-12-17T14:52:40.502Z,4.46
2022-12-17T14:55:31.655Z,4.49
2022-12-17T14:58:13.680Z,4.43
2022-12-17T15:01:03.516Z,4.45
2022-12-17T15:03:34.063Z,4.49
2022-12-17T15:06:06.904Z,4.50
2022-12-17T15:08:36.084Z,4.49
2022-12-17T15:11:03.525Z,4.49
2022-12-17T15:13:29.939Z,4.55
2022-12-17T15:15:57.581Z,4.55
2022-12-17T15:18:24.240Z,4.58
2022-12-17T15:20:50.832Z,4.61
2022-12-17T15:23:19.800Z,4.67
2022-12-17T15:25:48.493Z,4.65
2022-12-17T15:28:15.991Z,4.63
2022-12-17T15:30:42.608Z,4.64
2022-12-17T15:33:10.263Z,4.53
2022-12-17T15:35:37.629Z,4.52
2022-12-17T15:38:05.759Z,4.56
2022-12-17T15:40:32.951Z,4.60
2022-12-17T15:43:11.328Z,4.60
2022-12-17T15:45:46.290Z,4.63
2022-12-17T15:48:15.597Z,4.62
2022-12-17T15:50:42.008Z,4.60
2022-12-17T15:53:09.398Z,4.65
2022-12-17T15:55:37.137Z,4.68
2022-12-17T15:58:04.217Z,4.75
2022-12-17T16:00:30.827Z,4.78
2022-12-17T16:02:57.599Z,4.81
2022-12-17T16:05:24.292Z,4.85
2022-12-17T16:07:51.495Z,4.90
2022-12-17T16:10:18.882Z,4.94
2022-12-17T16:12:45.544Z,4.90
2022-12-17T16:15:13.313Z,4.90
2022-12-17T16:17:39.817Z,4.93
2022-12-17T16:20:07.286Z,4.99
2022-12-17T16:22:33.830Z,4.99
2022-12-17T16:25:00.308Z,5.01
2022-12-17T16:27:26.731Z,5.01
2022-12-17T16:29:53.156Z,5.03
2022-12-17T16:32:19.958Z,5.09
2022-12-17T16:34:46.811Z,5.03
2022-12-17T16:37:13.231Z,5.00
2022-12-17T16:39:39.660Z,5.00
2022-12-17T16:42:06.227Z,5.00
2022-12-17T16:44:32.707Z,5.03
2022-12-17T16:46:59.825Z,5.11
2022-12-17T16:49:26.565Z,5.16
2022-12-17T16:51:54.823Z,5.14
2022-12-17T16:54:24.292Z,5.13
2022-12-17T16:56:51.037Z,5.17
2022-12-17T16:59:18.707Z,5.15
2022-12-17T17:01:47.714Z,5.17
2022-12-17T17:04:16.394Z,5.19
2022-12-17T17:06:48.560Z,5.22
2022-12-17T17:09:15.912Z,5.22
2022-12-17T17:11:46.888Z,5.21
2022-12-17T17:14:16.494Z,5.22
2022-12-17T17:16:42.894Z,5.26
2022-12-17T17:19:09.350Z,5.26
2022-12-17T17:21:38.681Z,5.26
2022-12-17T17:24:20.332Z,5.30
2022-12-17T17:26:48.703Z,5.33
2022-12-17T17:29:15.150Z,5.33
2022-12-17T17:34:28.010Z,5.39
2022-12-17T17:36:54.422Z,5.40
2022-12-17T17:39:21.055Z,5.35
2022-12-17T17:41:47.481Z,5.36
2022-12-17T17:44:14.186Z,5.37
2022-12-17T17:46:41.024Z,5.37
2022-12-17T17:49:08.817Z,5.36
2022-12-17T17:54:28.169Z,5.34
2022-12-17T17:56:54.596Z,5.37
2022-12-17T17:59:24.206Z,5.38
2022-12-17T18:01:55.765Z,5.38
2022-12-17T18:04:24.249Z,5.43
2022-12-17T18:07:23.241Z,5.44
2022-12-17T18:09:37.167Z,5.41
2022-12-17T18:12:23.705Z,5.41
2022-12-17T18:15:13.155Z,5.43
2022-12-17T18:17:36.829Z,5.51
2022-12-17T18:20:03.774Z,5.59
2022-12-17T18:22:30.189Z,5.53
2022-12-17T18:24:56.579Z,5.52
2022-12-17T18:27:22.989Z,5.50
2022-12-17T18:29:49.436Z,5.50
2022-12-17T18:32:15.851Z,5.52
2022-12-17T18:34:42.656Z,5.52
2022-12-17T18:37:09.127Z,5.53
2022-12-17T18:39:35.647Z,5.53
2022-12-17T18:42:20.427Z,5.52
2022-12-17T18:44:46.805Z,5.53
2022-12-17T18:47:13.320Z,5.53
2022-12-17T18:49:39.795Z,5.52
2022-12-17T18:52:09.409Z,5.52
2022-12-17T18:54:39.635Z,5.55
2022-12-17T18:57:06.029Z,5.55
2022-12-17T18:59:32.528Z,5.56
2022-12-17T19:01:59.052Z,5.61
2022-12-17T19:04:26.312Z,5.62
2022-12-17T19:06:53.857Z,5.68
2022-12-17T19:09:29.921Z,5.63
2022-12-17T19:11:57.053Z,5.62
2022-12-17T19:14:25.095Z,5.63
2022-12-17T19:16:54.005Z,5.62
2022-12-17T19:19:21.610Z,5.62
2022-12-17T19:21:48.789Z,5.60
2022-12-17T19:24:17.144Z,5.57
2022-12-17T19:26:44.479Z,5.57
2022-12-17T19:29:12.821Z,5.59
2022-12-17T19:31:39.803Z,5.59
2022-12-17T19:34:07.809Z,5.61
2022-12-17T19:36:36.424Z,5.57
2022-12-17T19:39:06.002Z,5.56
2022-12-17T19:41:33.454Z,5.55
2022-12-17T19:44:05.518Z,5.56
2022-12-17T19:46:33.855Z,5.58
2022-12-17T19:49:01.073Z,5.55
2022-12-17T19:51:29.399Z,5.53
2022-12-17T19:53:56.228Z,5.52
2022-12-17T19:56:28.840Z,5.52
2022-12-17T19:59:01.985Z,5.49
2022-12-17T20:01:34.335Z,5.49
2022-12-17T20:04:00.843Z,5.50
2022-12-17T20:06:29.331Z,5.49
2022-12-17T20:08:57.463Z,5.48
2022-12-17T20:11:32.952Z,5.47
2022-12-17T20:14:07.330Z,5.42
2022-12-17T20:16:38.908Z,5.36
2022-12-17T20:19:08.050Z,5.39
2022-12-17T20:21:34.500Z,5.37
2022-12-17T20:24:00.927Z,5.30
2022-12-17T20:26:27.372Z,5.28
2022-12-17T20:28:55.387Z,5.27
2022-12-17T20:31:21.950Z,5.31
2022-12-17T20:33:48.582Z,5.28
2022-12-17T20:36:17.560Z,5.18
2022-12-17T20:38:44.262Z,5.11
2022-12-17T20:41:11.724Z,5.15
2022-12-17T20:43:38.726Z,5.12
2022-12-17T20:46:06.528Z,5.01
2022-12-17T20:48:33.450Z,4.93
2022-12-17T20:51:05.095Z,4.97
2022-12-17T20:53:31.605Z,4.92
2022-12-17T20:56:07.232Z,4.87
2022-12-17T20:58:33.944Z,4.88
2022-12-17T21:01:10.111Z,4.87
2022-12-17T21:03:36.911Z,4.79
2022-12-17T21:06:08.962Z,4.81
2022-12-17T21:08:36.099Z,4.89
2022-12-17T21:11:02.846Z,4.91
2022-12-17T21:13:30.000Z,4.86
2022-12-17T21:15:59.113Z,4.89
2022-12-17T21:18:27.379Z,4.78
2022-12-17T21:21:05.431Z,4.69
2022-12-17T21:23:33.591Z,4.68
2022-12-17T21:26:03.133Z,4.69
2022-12-17T21:28:36.373Z,4.63
2022-12-17T21:31:03.742Z,4.58
2022-12-17T21:33:31.279Z,4.53
2022-12-17T21:36:07.559Z,4.49
2022-12-17T21:38:34.861Z,4.49
2022-12-17T21:41:07.586Z,4.50
2022-12-17T21:43:36.793Z,4.52
2022-12-17T21:46:04.392Z,4.50
2022-12-17T21:48:33.409Z,4.40
2022-12-17T21:51:06.250Z,4.33
2022-12-17T21:53:33.632Z,4.29
2022-12-17T21:56:08.422Z,4.20
2022-12-17T21:58:35.421Z,4.13
2022-12-17T22:01:25.040Z,4.17
2022-12-17T22:03:54.449Z,4.16
2022-12-17T22:06:28.429Z,4.08
2022-12-17T22:09:01.593Z,4.11
2022-12-17T22:11:33.054Z,4.14
2022-12-17T22:14:07.286Z,4.12
2022-12-17T22:16:49.822Z,4.11
2022-12-17T22:19:18.019Z,4.13
2022-12-17T22:21:49.805Z,4.14
2022-12-17T22:24:22.568Z,4.16
2022-12-17T22:26:49.155Z,4.16
2022-12-17T22:29:36.241Z,4.16
2022-12-17T22:32:22.144Z,4.14
2022-12-17T22:36:04.617Z,4.08
2022-12-17T22:39:41.997Z,4.03
2022-12-17T22:42:23.049Z,4.02
2022-12-17T22:44:40.881Z,4.00
2022-12-17T22:46:17.183Z,3.98
2022-12-17T22:48:43.906Z,3.97
2022-12-17T22:51:13.746Z,4.00
2022-12-17T22:53:46.469Z,3.90
2022-12-17T22:56:36.825Z,3.91
2022-12-17T22:58:59.492Z,3.88
2022-12-17T23:01:26.096Z,3.84
2022-12-17T23:04:00.297Z,3.88
2022-12-17T23:06:29.866Z,3.91
2022-12-17T23:08:56.346Z,4.04
2022-12-17T23:11:24.908Z,4.11
2022-12-17T23:13:52.205Z,4.10
2022-12-17T23:16:18.894Z,4.13
2022-12-17T23:18:46.891Z,4.19
2022-12-17T23:21:18.320Z,4.24
2022-12-17T23:23:44.800Z,4.24
2022-12-17T23:26:20.507Z,4.31
2022-12-17T23:28:47.031Z,4.34
2022-12-17T23:31:16.512Z,4.37
2022-12-17T23:33:43.946Z,4.37
2022-12-17T23:36:13.202Z,4.43
2022-12-17T23:38:40.161Z,4.44
2022-12-17T23:41:09.402Z,4.39
2022-12-17T23:43:37.155Z,4.44
2022-12-17T23:46:05.032Z,4.44
2022-12-17T23:48:34.404Z,4.49
2022-12-17T23:51:01.900Z,4.50
2022-12-17T23:53:30.000Z,4.52
2022-12-17T23:55:56.649Z,4.60
2022-12-17T23:58:23.082Z,4.67
